Sertar, China
Current Conditions -  °F | °C
As of 3:00 PM on Friday 31 Oct 2014 (Local Time) from ZUUU Reporting Station
Scattered Clouds Scattered Clouds  
Wind Chill: 63°   Ceiling: Unl
Heat Index: 63°   Visibility: 6mi
Dew Point: 55°   Wind: 7mph
Humidity: 77%   Direction: 360°N
Pressure: 29.97"   Gusts: NA
Location:  32.28°N, 100.33°E
Report Text: ZUUU 310700Z 36003MPS 320V040 9999 SCT026 17/13 Q1015 NOSIG
Loading
Personal Weather Stations






























Interactive Weather Map
Tropical Storm Tracking
New forecast layout! Learn more

10-Day Weather Forecast

Advertisements
Track Severe Weather on mobile